Time;durP1;ratioP1;P1;durP2;ratioP2;P2;SDS_P1;SDS_P2;PMS_P1;PMS_P2;Temp;Humidity;BMP_temperature;BMP_pressure;BME280_temperature;BME280_humidity;BME280_pressure;Samples;Min_cycle;Max_cycle;Signal;HPM_P1;HPM_P2
2022/10/30 00:00:36;;;;;;;22.83;11.50;;;;;;;16.98;81.12;101314.81;5025541;28;20496;-66
2022/10/30 00:03:03;;;;;;;20.77;11.43;;;;;;;16.71;81.80;101317.53;5038578;28;20455;-67
2022/10/30 00:05:29;;;;;;;24.17;11.45;;;;;;;16.80;81.85;101316.91;5027939;28;20051;-74
2022/10/30 00:07:57;;;;;;;18.23;11.23;;;;;;;16.61;82.08;101313.81;5027442;28;20699;-74
2022/10/30 00:10:24;;;;;;;17.92;10.93;;;;;;;16.68;81.72;101306.31;5027058;28;20060;-74
2022/10/30 00:12:51;;;;;;;20.30;11.65;;;;;;;16.74;81.65;101308.56;5018179;28;20052;-74
2022/10/30 00:15:19;;;;;;;23.13;11.27;;;;;;;16.76;81.46;101314.59;5029313;28;20048;-74
2022/10/30 00:17:45;;;;;;;21.70;11.63;;;;;;;16.84;81.44;101306.97;5030697;28;20085;-74
2022/10/30 00:20:12;;;;;;;21.55;10.98;;;;;;;16.74;81.50;101313.84;5020571;28;20045;-74
2022/10/30 00:22:38;;;;;;;18.85;11.18;;;;;;;16.62;81.87;101318.19;5029356;28;20045;-74
2022/10/30 00:25:06;;;;;;;21.73;10.93;;;;;;;16.60;82.28;101313.91;5030617;28;20044;-73
2022/10/30 00:27:35;;;;;;;18.98;11.98;;;;;;;16.40;83.17;101310.81;5021662;28;20562;-73
2022/10/30 00:30:01;;;;;;;20.45;12.27;;;;;;;16.52;83.08;101309.94;5030226;28;20519;-73
2022/10/30 00:32:29;;;;;;;22.60;12.38;;;;;;;16.29;84.85;101300.06;5030304;28;20783;-73
2022/10/30 00:34:56;;;;;;;19.10;10.95;;;;;;;16.15;84.71;101296.66;5013714;28;20057;-73
2022/10/30 00:37:22;;;;;;;23.20;12.20;;;;;;;15.87;87.01;101294.94;5029775;28;20080;-73
2022/10/30 00:39:48;;;;;;;23.88;11.45;;;;;;;15.61;89.66;101293.13;5029661;28;20048;-74
2022/10/30 00:42:16;;;;;;;24.75;12.00;;;;;;;15.76;89.93;101286.84;5019993;28;20047;-74
2022/10/30 00:44:47;;;;;;;24.63;11.30;;;;;;;15.54;91.40;101282.94;5030236;28;20045;-74
2022/10/30 00:47:19;;;;;;;23.50;11.60;;;;;;;15.81;90.65;101282.13;5030637;28;20056;-74
2022/10/30 00:49:53;;;;;;;24.35;12.55;;;;;;;15.93;89.83;101270.72;5019795;28;20044;-74
2022/10/30 00:52:23;;;;;;;25.55;12.95;;;;;;;15.59;92.36;101272.91;5029998;28;20044;-74
2022/10/30 00:54:50;;;;;;;25.67;12.30;;;;;;;15.75;92.55;101271.94;5019702;28;20045;-74
2022/10/30 00:57:18;;;;;;;24.15;12.57;;;;;;;15.88;91.57;101272.84;5030813;28;20040;-74
2022/10/30 00:59:45;;;;;;;29.15;12.45;;;;;;;16.23;88.70;101263.41;5029353;28;20049;-74
2022/10/30 01:02:12;;;;;;;27.17;11.38;;;;;;;16.45;87.85;101263.69;5028433;28;20064;-74
2022/10/30 01:04:39;;;;;;;21.45;11.73;;;;;;;16.73;86.26;101270.63;5032094;28;20052;-74
2022/10/30 01:07:10;;;;;;;22.10;11.20;;;;;;;16.87;85.88;101261.72;5030225;28;20051;-74
2022/10/30 01:09:37;;;;;;;24.60;10.65;;;;;;;16.77;85.00;101266.81;5013568;28;20397;-74
2022/10/30 01:12:04;;;;;;;28.35;11.02;;;;;;;16.88;85.28;101266.06;5029424;28;20480;-74
2022/10/30 01:14:32;;;;;;;21.98;11.35;;;;;;;16.91;84.35;101265.84;5030733;28;20116;-74
2022/10/30 01:17:14;;;;;;;20.75;11.38;;;;;;;17.14;83.48;101273.03;5019616;28;20437;-74
2022/10/30 01:19:48;;;;;;;27.08;11.73;;;;;;;17.38;82.53;101267.78;5027275;28;20049;-74
2022/10/30 01:22:31;;;;;;;16.27;10.18;;;;;;;17.62;80.78;101260.78;5020114;28;20269;-74
2022/10/30 01:25:08;;;;;;;18.85;10.20;;;;;;;17.55;80.49;101254.19;5027287;28;20055;-74
2022/10/30 01:27:48;;;;;;;23.83;9.55;;;;;;;17.55;79.90;101253.34;5019256;28;20061;-74
2022/10/30 01:30:29;;;;;;;17.33;10.10;;;;;;;17.60;79.60;101237.94;5030507;28;20488;-74
2022/10/30 01:33:11;;;;;;;13.90;9.45;;;;;;;17.59;79.37;101233.63;5025559;28;20047;-74
2022/10/30 01:35:44;;;;;;;23.05;10.27;;;;;;;17.25;80.87;101243.97;5032589;28;20306;-73
2022/10/30 01:38:17;;;;;;;20.77;10.30;;;;;;;17.36;81.07;101251.16;5032477;28;20042;-73
2022/10/30 01:40:44;;;;;;;23.77;10.27;;;;;;;17.32;81.15;101265.59;5035059;28;20416;-73
2022/10/30 01:43:11;;;;;;;20.38;10.48;;;;;;;17.38;81.02;101268.63;5029001;28;20072;-73
2022/10/30 01:45:57;;;;;;;22.45;10.30;;;;;;;17.34;79.68;101258.34;5030177;28;20045;-73
2022/10/30 01:48:44;;;;;;;22.73;10.13;;;;;;;16.99;81.11;101263.53;5020011;28;20045;-73
2022/10/30 01:51:19;;;;;;;20.10;10.15;;;;;;;16.93;81.09;101266.56;5028660;28;20048;-74
2022/10/30 01:53:57;;;;;;;20.20;10.63;;;;;;;16.99;80.67;101260.88;5019007;28;20481;-74
2022/10/30 01:56:32;;;;;;;18.95;11.00;;;;;;;16.42;83.95;101253.31;5028871;28;20060;-73
2022/10/30 01:59:05;;;;;;;24.80;10.40;;;;;;;15.94;86.95;101252.13;5019077;28;20037;-73
2022/10/30 02:01:34;;;;;;;19.67;11.20;;;;;;;16.32;85.87;101240.78;5027790;28;20053;-73
2022/10/30 02:04:01;;;;;;;25.13;11.23;;;;;;;16.53;84.76;101240.19;5029486;28;20048;-73
2022/10/30 02:06:28;;;;;;;23.08;10.90;;;;;;;16.04;87.41;101239.97;5025845;28;20180;-73
2022/10/30 02:08:56;;;;;;;19.35;10.88;;;;;;;16.17;86.60;101241.81;5019212;28;20103;-73
2022/10/30 02:11:23;;;;;;;17.40;10.60;;;;;;;16.17;86.09;101232.09;5026317;28;20436;-73
2022/10/30 02:13:53;;;;;;;20.77;10.93;;;;;;;16.25;85.47;101244.81;5028403;28;20050;-73
2022/10/30 02:16:19;;;;;;;16.13;10.13;;;;;;;16.30;85.39;101237.38;5027472;28;20440;-74
2022/10/30 02:18:46;;;;;;;18.25;10.77;;;;;;;16.12;86.16;101238.63;5018387;28;20052;-73
2022/10/30 02:21:14;;;;;;;23.13;11.77;;;;;;;16.19;85.79;101238.13;5028816;28;20044;-73
2022/10/30 02:23:40;;;;;;;19.95;10.43;;;;;;;16.22;85.49;101232.63;5027629;28;20045;-73
2022/10/30 02:26:07;;;;;;;21.48;10.65;;;;;;;16.21;85.14;101235.38;5017900;28;20045;-73
2022/10/30 02:28:33;;;;;;;24.80;9.68;;;;;;;16.17;84.71;101232.09;5028603;28;20690;-73
2022/10/30 02:31:00;;;;;;;19.52;9.48;;;;;;;16.26;84.92;101220.06;5026024;28;20041;-73
2022/10/30 02:33:26;;;;;;;21.35;11.02;;;;;;;16.32;85.05;101209.03;5023334;28;20044;-73
2022/10/30 02:35:53;;;;;;;20.98;10.40;;;;;;;16.60;83.41;101211.50;5029647;28;20081;-73
2022/10/30 02:38:21;;;;;;;19.15;10.02;;;;;;;16.70;82.96;101209.94;5027117;28;20416;-73
2022/10/30 02:40:47;;;;;;;22.08;10.23;;;;;;;16.69;83.23;101217.97;5004471;28;20046;-74
2022/10/30 02:43:14;;;;;;;19.73;9.48;;;;;;;16.84;82.73;101201.88;5008777;28;20081;-73
2022/10/30 02:45:40;;;;;;;21.48;9.65;;;;;;;16.53;83.01;101208.41;5008414;28;20494;-73
2022/10/30 02:48:07;;;;;;;19.02;8.85;;;;;;;16.23;84.85;101202.56;5016696;28;20508;-73
2022/10/30 02:50:33;;;;;;;18.13;9.02;;;;;;;16.44;83.93;101208.22;5019554;28;20128;-73
2022/10/30 02:52:59;;;;;;;26.13;9.57;;;;;;;16.40;84.31;101204.06;5027579;28;20048;-73
2022/10/30 02:55:27;;;;;;;25.73;10.93;;;;;;;16.07;85.39;101208.03;5028202;28;20056;-73
2022/10/30 02:57:54;;;;;;;21.95;9.25;;;;;;;16.43;84.30;101210.00;5018206;28;20056;-73
2022/10/30 03:00:21;;;;;;;26.77;9.27;;;;;;;16.58;83.18;101213.44;5027155;28;20493;-73
2022/10/30 03:02:47;;;;;;;16.30;8.45;;;;;;;16.95;81.53;101215.22;5034257;28;20390;-73
2022/10/30 03:05:14;;;;;;;16.05;8.23;;;;;;;17.12;81.03;101226.38;5022559;28;20049;-73
2022/10/30 03:07:40;;;;;;;17.17;8.35;;;;;;;17.28;79.51;101225.19;5025201;28;20051;-73
2022/10/30 03:10:07;;;;;;;19.45;8.68;;;;;;;17.40;79.27;101221.69;5021233;28;20045;-73
2022/10/30 03:12:35;;;;;;;21.70;9.05;;;;;;;17.15;79.96;101226.16;5018535;28;20048;-73
2022/10/30 03:15:01;;;;;;;17.67;8.10;;;;;;;17.32;79.14;101229.34;5027103;28;20048;-73
2022/10/30 03:17:28;;;;;;;26.42;9.60;;;;;;;17.31;78.66;101238.22;5028075;28;20063;-73
2022/10/30 03:19:54;;;;;;;19.38;9.02;;;;;;;17.38;78.47;101250.09;5016923;28;20048;-73
2022/10/30 03:22:21;;;;;;;19.80;9.32;;;;;;;17.50;77.83;101249.22;5025488;28;20041;-73
2022/10/30 03:24:47;;;;;;;15.20;8.65;;;;;;;17.53;76.81;101248.13;5026761;28;20049;-73
2022/10/30 03:27:14;;;;;;;18.48;8.02;;;;;;;17.14;78.95;101251.84;5016523;28;20045;-74
2022/10/30 03:29:41;;;;;;;20.13;8.48;;;;;;;17.18;78.91;101252.47;5026830;28;20056;-73
2022/10/30 03:32:09;;;;;;;16.88;8.80;;;;;;;17.34;78.16;101251.25;5026214;28;20053;-73
2022/10/30 03:34:36;;;;;;;15.27;8.60;;;;;;;16.82;79.32;101255.88;5017121;28;20078;-73
2022/10/30 03:37:05;;;;;;;15.82;8.52;;;;;;;17.12;78.82;101248.44;5026574;28;20443;-73
2022/10/30 03:39:31;;;;;;;19.17;9.00;;;;;;;16.68;80.19;101250.69;5019909;28;20061;-73
2022/10/30 03:41:58;;;;;;;19.02;8.65;;;;;;;15.95;83.49;101237.97;5017440;28;20048;-73
2022/10/30 03:44:24;;;;;;;18.50;9.13;;;;;;;16.10;83.33;101241.41;5026800;28;20489;-73
2022/10/30 03:46:52;;;;;;;16.02;8.75;;;;;;;16.37;82.60;101238.69;5027767;28;20443;-73
2022/10/30 03:49:18;;;;;;;17.63;8.98;;;;;;;16.54;81.65;101244.53;5017040;28;20076;-73
2022/10/30 03:51:45;;;;;;;14.93;7.95;;;;;;;16.65;80.48;101245.63;5025792;28;20048;-73
2022/10/30 03:54:11;;;;;;;13.82;8.10;;;;;;;16.57;80.35;101250.59;5028044;28;20583;-73
2022/10/30 03:56:38;;;;;;;24.30;8.98;;;;;;;16.28;79.59;101239.31;5017246;28;20048;-73
2022/10/30 03:59:04;;;;;;;17.38;8.82;;;;;;;15.69;82.49;101236.19;5026842;28;20049;-73
2022/10/30 04:01:30;;;;;;;20.30;8.35;;;;;;;15.81;81.95;101247.75;5026915;28;20052;-73
2022/10/30 04:03:58;;;;;;;22.42;9.57;;;;;;;15.91;81.86;101246.19;5043554;28;20501;-73
2022/10/30 04:06:25;;;;;;;16.27;8.95;;;;;;;15.87;82.35;101247.34;5026096;28;20061;-73
2022/10/30 04:08:53;;;;;;;17.85;8.43;;;;;;;16.07;80.98;101244.25;5026075;28;20056;-73
2022/10/30 04:11:20;;;;;;;13.70;7.72;;;;;;;15.92;79.24;101243.47;5016293;28;20155;-73
2022/10/30 04:13:46;;;;;;;18.45;9.23;;;;;;;16.00;78.85;101245.59;5026253;28;20056;-73
2022/10/30 04:16:13;;;;;;;15.63;7.45;;;;;;;15.61;80.72;101259.63;5026363;28;20041;-73
2022/10/30 04:18:39;;;;;;;12.85;8.85;;;;;;;15.27;81.60;101247.66;5013648;28;20443;-73
2022/10/30 04:21:07;;;;;;;17.90;8.10;;;;;;;15.23;82.54;101243.50;5025968;28;20752;-74
2022/10/30 04:23:34;;;;;;;19.27;9.13;;;;;;;15.26;83.51;101237.22;5027009;28;20064;-74
2022/10/30 04:26:00;;;;;;;19.67;9.20;;;;;;;15.54;82.68;101219.53;5016312;28;20049;-74
2022/10/30 04:28:27;;;;;;;19.88;8.50;;;;;;;15.29;82.04;101237.00;5025984;28;20049;-74
2022/10/30 04:30:53;;;;;;;16.42;8.60;;;;;;;15.28;81.64;101244.09;5026179;28;20044;-73
2022/10/30 04:33:20;;;;;;;11.38;7.80;;;;;;;15.44;80.46;101236.03;5017109;28;20053;-73
2022/10/30 04:35:46;;;;;;;11.95;7.60;;;;;;;14.67;82.55;101233.00;5026483;28;20052;-73
2022/10/30 04:38:15;;;;;;;22.65;9.10;;;;;;;14.54;84.98;101236.38;5027061;28;20048;-73
2022/10/30 04:40:43;;;;;;;19.77;8.88;;;;;;;14.85;84.65;101234.50;4998270;28;20493;-73
2022/10/30 04:43:10;;;;;;;21.88;9.43;;;;;;;14.83;85.16;101241.66;5006255;28;20049;-73
2022/10/30 04:45:38;;;;;;;25.52;9.57;;;;;;;14.80;84.32;101244.47;5008551;28;20052;-73
2022/10/30 04:48:06;;;;;;;15.73;8.63;;;;;;;14.81;85.02;101246.19;5006813;28;20056;-73
2022/10/30 04:50:33;;;;;;;23.48;9.88;;;;;;;15.03;84.28;101238.66;5029860;28;20432;-73
2022/10/30 04:53:03;;;;;;;20.52;10.40;;;;;;;15.16;84.50;101234.28;5028390;28;20071;-73
2022/10/30 04:55:32;;;;;;;26.25;10.10;;;;;;;15.45;83.65;101225.34;5008925;28;20421;-73
2022/10/30 04:57:59;;;;;;;20.35;9.68;;;;;;;15.52;83.10;101220.56;5042160;28;20048;-73
2022/10/30 05:00:26;;;;;;;22.48;10.93;;;;;;;15.44;85.41;101218.41;5010497;28;20049;-73
2022/10/30 05:02:53;;;;;;;20.67;9.77;;;;;;;15.29;85.58;101237.88;5041480;28;20048;-73
2022/10/30 05:05:20;;;;;;;17.25;9.13;;;;;;;15.43;84.24;101229.91;5026283;28;20056;-73
2022/10/30 05:07:47;;;;;;;15.43;8.85;;;;;;;15.45;84.63;101238.56;5027526;28;20060;-73
2022/10/30 05:10:14;;;;;;;20.10;9.32;;;;;;;15.51;84.46;101248.78;5025111;28;20517;-73
2022/10/30 05:12:43;;;;;;;18.20;9.07;;;;;;;15.71;83.36;101246.63;5030452;28;20073;-73
2022/10/30 05:15:10;;;;;;;18.83;9.77;;;;;;;15.68;83.49;101249.47;5027482;28;20049;-73
2022/10/30 05:17:36;;;;;;;23.98;8.90;;;;;;;15.34;83.58;101258.69;5030032;28;20950;-73
2022/10/30 05:20:03;;;;;;;18.38;9.20;;;;;;;15.25;84.86;101256.63;5028937;28;20147;-73
2022/10/30 05:22:29;;;;;;;22.50;10.02;;;;;;;15.25;84.49;101244.28;5030060;28;20048;-73
2022/10/30 05:24:56;;;;;;;18.02;9.50;;;;;;;14.74;87.87;101248.38;5023883;28;20057;-73
2022/10/30 05:27:22;;;;;;;28.67;10.57;;;;;;;14.56;90.27;101263.50;5027487;28;20051;-73
2022/10/30 05:29:50;;;;;;;16.45;10.23;;;;;;;14.70;90.36;101261.84;5029787;28;20474;-73
2022/10/30 05:32:16;;;;;;;24.08;9.65;;;;;;;15.17;87.50;101251.84;5024102;28;20041;-74
2022/10/30 05:34:43;;;;;;;18.38;8.98;;;;;;;15.00;87.10;101252.03;5020179;28;20041;-73
2022/10/30 05:37:09;;;;;;;18.58;9.35;;;;;;;14.64;88.65;101260.41;5030023;28;20599;-73
2022/10/30 05:39:36;;;;;;;18.70;9.95;;;;;;;15.03;87.43;101268.56;5010890;28;20045;-73
2022/10/30 05:42:02;;;;;;;18.48;9.43;;;;;;;15.32;86.19;101263.22;5028951;28;20041;-74
2022/10/30 05:44:28;;;;;;;19.70;9.07;;;;;;;15.45;85.16;101266.78;5029493;28;20049;-73
2022/10/30 05:46:56;;;;;;;20.55;8.75;;;;;;;15.52;83.80;101263.69;5019184;28;20397;-73
2022/10/30 05:49:23;;;;;;;14.95;9.20;;;;;;;15.55;83.47;101265.31;5027535;28;20508;-73
2022/10/30 05:51:49;;;;;;;16.55;9.15;;;;;;;15.04;84.59;101274.66;5029190;28;20625;-73
2022/10/30 05:54:17;;;;;;;17.52;8.93;;;;;;;14.94;85.96;101276.16;5020241;28;20489;-73
2022/10/30 05:56:43;;;;;;;23.33;9.63;;;;;;;15.36;84.31;101270.03;5027571;28;20064;-73
2022/10/30 05:59:10;;;;;;;22.88;10.60;;;;;;;15.40;84.22;101282.94;5028284;28;20501;-73
2022/10/30 06:01:36;;;;;;;20.40;10.00;;;;;;;15.35;84.84;101285.03;5019179;28;20088;-73
2022/10/30 06:04:04;;;;;;;17.65;10.07;;;;;;;15.61;83.69;101285.19;5028715;28;20052;-73
2022/10/30 06:06:32;;;;;;;19.48;9.70;;;;;;;15.66;83.27;101276.03;5029030;28;20041;-73
2022/10/30 06:08:58;;;;;;;15.30;8.65;;;;;;;15.57;83.03;101281.91;5010839;28;20045;-73
2022/10/30 06:11:25;;;;;;;19.08;8.98;;;;;;;15.39;82.93;101291.81;5027954;28;20053;-74
2022/10/30 06:13:51;;;;;;;16.95;9.57;;;;;;;15.51;83.62;101291.09;5028217;28;20049;-73
2022/10/30 06:16:18;;;;;;;16.95;9.57;;;;;;;15.56;82.99;101288.13;5018736;28;20056;-73
2022/10/30 06:18:44;;;;;;;20.67;9.38;;;;;;;15.78;81.90;101295.56;5027509;28;20041;-73
2022/10/30 06:21:12;;;;;;;19.52;9.25;;;;;;;15.78;81.45;101293.72;5028162;28;20056;-73
2022/10/30 06:23:38;;;;;;;18.63;9.18;;;;;;;15.68;81.20;101297.06;5018161;28;20110;-73
2022/10/30 06:26:05;;;;;;;19.23;9.63;;;;;;;15.54;81.17;101296.16;5026914;28;20532;-73
2022/10/30 06:28:31;;;;;;;15.65;8.60;;;;;;;15.48;81.78;101300.97;5028542;28;20448;-74
2022/10/30 06:30:58;;;;;;;13.80;9.80;;;;;;;15.35;82.44;101300.03;5017351;28;20684;-72
2022/10/30 06:33:24;;;;;;;19.77;10.13;;;;;;;15.45;82.00;101309.91;5027716;28;20691;-73
2022/10/30 06:35:51;;;;;;;15.20;10.40;;;;;;;15.08;83.41;101302.56;5032681;28;20055;-73
2022/10/30 06:38:19;;;;;;;18.83;10.35;;;;;;;15.31;83.14;101304.66;5017438;28;20674;-73
2022/10/30 06:40:45;;;;;;;18.10;9.63;;;;;;;15.50;81.81;101292.03;5015319;28;20225;-73
2022/10/30 06:43:12;;;;;;;14.82;8.38;;;;;;;15.26;82.17;101305.91;5027861;28;20049;-73
2022/10/30 06:45:38;;;;;;;18.15;9.25;;;;;;;15.26;82.09;101305.91;5017380;28;20053;-73
2022/10/30 06:48:05;;;;;;;16.13;8.35;;;;;;;14.98;83.03;101306.72;5037843;28;20143;-72
2022/10/30 06:50:31;;;;;;;15.10;7.35;;;;;;;15.06;82.83;101301.84;5038062;28;20048;-72
2022/10/30 06:52:58;;;;;;;18.23;9.40;;;;;;;15.16;83.00;101310.03;5033823;28;20044;-72
2022/10/30 06:55:26;;;;;;;14.57;9.00;;;;;;;15.20;82.48;101304.47;5028053;28;20045;-73
2022/10/30 06:57:55;;;;;;;15.75;8.07;;;;;;;15.04;81.70;101311.63;5025714;28;20098;-74
2022/10/30 07:00:22;;;;;;;18.38;9.32;;;;;;;15.33;81.68;101312.50;5016614;28;20073;-74
2022/10/30 07:02:55;;;;;;;18.60;10.50;;;;;;;15.51;81.46;101306.94;5043977;28;20052;-74
2022/10/30 07:05:22;;;;;;;23.73;9.95;;;;;;;15.37;82.49;101312.19;5042003;28;20041;-74
2022/10/30 07:07:48;;;;;;;20.77;10.55;;;;;;;15.45;82.42;101311.72;5041124;28;20445;-74
2022/10/30 07:10:15;;;;;;;14.85;8.55;;;;;;;15.74;82.00;101309.91;5039919;28;20408;-74
2022/10/30 07:12:45;;;;;;;21.08;10.27;;;;;;;15.83;81.41;101310.16;5045904;28;20505;-74
2022/10/30 07:15:11;;;;;;;22.23;10.07;;;;;;;15.74;81.94;101323.97;5045873;28;20048;-73
2022/10/30 07:17:38;;;;;;;21.38;10.02;;;;;;;15.84;82.04;101325.09;5043795;28;20107;-73
2022/10/30 07:20:05;;;;;;;17.70;9.50;;;;;;;16.38;80.25;101317.97;5044503;28;20433;-73
2022/10/30 07:22:32;;;;;;;19.00;10.25;;;;;;;16.60;79.09;101324.50;5046423;28;20052;-73
2022/10/30 07:24:58;;;;;;;19.25;9.00;;;;;;;16.68;78.91;101323.03;5045292;28;20063;-74
2022/10/30 07:27:25;;;;;;;17.52;9.68;;;;;;;17.03;79.05;101325.94;5045304;28;20049;-74
2022/10/30 07:29:52;;;;;;;16.60;10.10;;;;;;;17.01;79.74;101328.69;5044809;28;20056;-74
2022/10/30 07:32:19;;;;;;;18.92;9.15;;;;;;;17.10;79.11;101340.47;5044159;28;20041;-74
2022/10/30 07:34:45;;;;;;;19.83;9.30;;;;;;;16.89;81.41;101336.63;5045223;28;20051;-73
2022/10/30 07:37:12;;;;;;;19.58;10.25;;;;;;;16.97;80.34;101334.28;5045074;28;20455;-73
2022/10/30 07:39:38;;;;;;;16.88;9.07;;;;;;;17.10;79.75;101329.00;5040924;28;20393;-73
2022/10/30 07:42:05;;;;;;;19.55;10.10;;;;;;;17.76;77.14;101323.41;5046397;28;20049;-73
2022/10/30 07:44:31;;;;;;;17.35;9.65;;;;;;;18.07;76.17;101311.41;5045705;28;20049;-73
2022/10/30 07:47:01;;;;;;;17.70;9.57;;;;;;;17.69;76.95;101299.13;5044619;28;20045;-72
2022/10/30 07:49:28;;;;;;;26.02;8.82;;;;;;;18.18;74.51;101308.81;5045493;28;20060;-72
2022/10/30 07:51:54;;;;;;;15.18;9.25;;;;;;;18.61;72.71;101317.94;5045482;28;20049;-72
2022/10/30 07:54:21;;;;;;;14.30;8.80;;;;;;;17.76;74.16;101311.00;5044912;28;20045;-72
2022/10/30 07:56:47;;;;;;;12.70;8.60;;;;;;;18.11;75.42;101315.53;5049899;28;20417;-72
2022/10/30 07:59:14;;;;;;;26.02;9.55;;;;;;;18.47;73.82;101312.78;5046435;28;20087;-73
2022/10/30 08:01:40;;;;;;;21.15;9.00;;;;;;;18.54;73.13;101308.72;5042846;28;20588;-73
2022/10/30 08:04:10;;;;;;;19.02;8.10;;;;;;;19.16;70.92;101322.47;5044433;28;20052;-73
2022/10/30 08:06:36;;;;;;;15.48;8.40;;;;;;;19.84;68.66;101335.63;5043480;28;20527;-74
2022/10/30 08:09:03;;;;;;;19.30;8.38;;;;;;;21.02;64.30;101324.84;5037401;28;20049;-74
2022/10/30 08:11:29;;;;;;;13.27;8.68;;;;;;;21.15;64.04;101327.31;5041757;28;20052;-74
2022/10/30 08:13:55;;;;;;;20.60;8.35;;;;;;;21.66;62.59;101319.22;5043290;28;20041;-74
2022/10/30 08:16:22;;;;;;;16.00;8.38;;;;;;;21.43;61.50;101328.44;5043624;28;20543;-73
2022/10/30 08:18:49;;;;;;;13.73;7.57;;;;;;;20.17;65.34;101308.09;5045295;28;20128;-72
2022/10/30 08:21:16;;;;;;;15.77;8.63;;;;;;;21.05;64.30;101321.06;5043953;28;20052;-75
2022/10/30 08:23:45;;;;;;;14.68;7.75;;;;;;;21.93;61.53;101323.97;5047205;28;20041;-74
2022/10/30 08:26:11;;;;;;;13.10;7.22;;;;;;;22.52;58.71;101337.22;5049517;28;20053;-73
2022/10/30 08:28:38;;;;;;;16.27;7.65;;;;;;;23.14;56.84;101340.22;5048982;28;20054;-74
2022/10/30 08:31:05;;;;;;;13.85;7.40;;;;;;;23.74;55.66;101341.53;5048228;28;20057;-74
2022/10/30 08:33:31;;;;;;;15.15;7.68;;;;;;;23.45;56.02;101343.53;5049413;28;20048;-73
2022/10/30 08:36:00;;;;;;;16.10;7.28;;;;;;;23.81;54.57;101348.97;5048728;28;20379;-75
2022/10/30 08:38:29;;;;;;;14.93;7.20;;;;;;;24.14;53.24;101354.56;5047807;28;20048;-74
2022/10/30 08:40:55;;;;;;;16.52;6.90;;;;;;;24.55;52.38;101339.72;5040300;28;20521;-75
2022/10/30 08:43:24;;;;;;;15.45;7.10;;;;;;;25.32;52.10;101333.53;5048154;28;20048;-75
2022/10/30 08:45:50;;;;;;;12.48;6.63;;;;;;;25.61;48.71;101339.41;5049122;28;20045;-75
2022/10/30 08:48:17;;;;;;;16.70;7.00;;;;;;;25.42;50.09;101339.66;5049446;28;20037;-75
2022/10/30 08:50:44;;;;;;;17.80;7.38;;;;;;;25.22;50.53;101354.28;5046346;28;20492;-75
2022/10/30 08:53:12;;;;;;;15.77;6.65;;;;;;;25.36;49.60;101350.16;5048687;28;20048;-75
2022/10/30 08:55:41;;;;;;;12.23;7.05;;;;;;;25.19;50.39;101342.03;5048924;28;20043;-75
2022/10/30 08:58:08;;;;;;;13.75;6.80;;;;;;;25.33;50.22;101340.59;5047393;28;20064;-75
2022/10/30 09:00:34;;;;;;;12.98;6.65;;;;;;;25.90;47.45;101339.03;5046891;28;20045;-75
2022/10/30 09:03:01;;;;;;;13.63;6.35;;;;;;;25.69;48.91;101343.97;5049408;28;20132;-76
2022/10/30 09:05:27;;;;;;;15.82;7.65;;;;;;;25.90;48.75;101336.34;5048005;28;20049;-75
2022/10/30 09:07:55;;;;;;;15.48;6.80;;;;;;;26.48;46.44;101335.44;5046918;28;20120;-75
2022/10/30 09:10:22;;;;;;;11.68;6.18;;;;;;;26.15;47.71;101347.97;5048235;28;20436;-75
2022/10/30 09:12:54;;;;;;;17.35;7.03;;;;;;;26.13;48.11;101344.59;5049146;28;21089;-76
2022/10/30 09:15:20;;;;;;;12.65;6.57;;;;;;;26.27;46.90;101344.00;5047517;28;20048;-68
2022/10/30 09:17:47;;;;;;;14.25;6.13;;;;;;;26.22;47.81;101342.78;5047664;28;20049;-68
2022/10/30 09:20:13;;;;;;;16.17;6.80;;;;;;;26.57;46.74;101340.63;5047618;28;20114;-68
2022/10/30 09:22:40;;;;;;;11.75;6.07;;;;;;;25.84;48.27;101345.03;5047285;28;20057;-68
2022/10/30 09:25:07;;;;;;;15.65;6.78;;;;;;;25.81;48.65;101344.53;5046891;28;20079;-68
2022/10/30 09:27:37;;;;;;;12.60;6.97;;;;;;;26.24;46.96;101343.50;5049167;28;20516;-68
2022/10/30 09:30:06;;;;;;;17.10;6.25;;;;;;;26.75;47.62;101342.31;5047196;28;20053;-68
2022/10/30 09:32:33;;;;;;;13.50;5.63;;;;;;;26.73;47.43;101337.09;5046054;28;20045;-69
2022/10/30 09:34:59;;;;;;;16.38;6.63;;;;;;;27.27;45.47;101343.56;5048160;28;20186;-69
2022/10/30 09:37:26;;;;;;;15.45;6.78;;;;;;;27.45;47.02;101336.16;5046548;28;20524;-69
2022/10/30 09:39:52;;;;;;;17.38;7.05;;;;;;;27.66;47.21;101346.34;5043378;28;20072;-69
2022/10/30 09:42:42;;;;;;;14.40;5.68;;;;;;;27.79;44.46;101332.31;5048134;28;20095;-69
2022/10/30 09:45:28;;;;;;;19.17;6.18;;;;;;;27.46;46.86;101331.59;5046323;28;20045;-69
2022/10/30 09:48:09;;;;;;;12.88;5.57;;;;;;;27.92;44.25;101321.78;5046963;28;20096;-69
2022/10/30 09:50:45;;;;;;;15.48;5.55;;;;;;;28.74;41.97;101321.03;5046366;28;20053;-69
2022/10/30 09:53:16;;;;;;;17.30;6.43;;;;;;;28.71;40.37;101324.13;5048733;28;20044;-69
2022/10/30 09:55:50;;;;;;;11.65;5.88;;;;;;;28.85;40.27;101317.06;5046908;28;20053;-69
2022/10/30 09:58:27;;;;;;;15.85;5.85;;;;;;;29.21;40.27;101322.56;5046435;28;20468;-69
2022/10/30 10:01:07;;;;;;;18.98;6.28;;;;;;;29.79;37.68;101327.06;5045897;28;20045;-69
2022/10/30 10:03:48;;;;;;;17.40;6.22;;;;;;;30.25;37.58;101319.50;5046478;28;20413;-69
2022/10/30 10:06:19;;;;;;;16.95;5.93;;;;;;;30.44;37.32;101318.91;5046502;28;20052;-70
2022/10/30 10:08:49;;;;;;;13.60;5.18;;;;;;;30.64;37.80;101316.34;5036697;28;20057;-70
2022/10/30 10:11:20;;;;;;;17.35;5.20;;;;;;;30.27;38.47;101322.84;5047903;28;20045;-70
2022/10/30 10:13:52;;;;;;;10.50;5.22;;;;;;;30.31;38.26;101324.97;5047233;28;20094;-70
2022/10/30 10:16:24;;;;;;;9.98;5.18;;;;;;;30.34;37.98;101326.47;5047041;28;20048;-70
2022/10/30 10:18:58;;;;;;;16.80;5.85;;;;;;;30.32;39.00;101329.38;5047098;28;20049;-69
2022/10/30 10:21:26;;;;;;;12.90;5.03;;;;;;;29.23;40.36;101326.75;5047127;28;20421;-69
2022/10/30 10:23:55;;;;;;;11.15;5.43;;;;;;;27.72;41.67;101336.69;5048160;28;20067;-69
2022/10/30 10:26:30;;;;;;;15.02;4.78;;;;;;;27.90;42.93;101332.72;5045660;28;20049;-69
2022/10/30 10:29:19;;;;;;;21.77;5.38;;;;;;;28.26;42.89;101330.34;5047513;28;20040;-69
2022/10/30 10:31:58;;;;;;;12.80;5.63;;;;;;;28.25;42.04;101319.72;5046017;28;20048;-68
2022/10/30 10:34:38;;;;;;;11.95;5.10;;;;;;;28.77;41.00;101323.38;5044447;28;20459;-68
2022/10/30 10:37:14;;;;;;;14.60;5.20;;;;;;;28.65;40.84;101330.19;5046619;28;20071;-69
2022/10/30 10:40:03;;;;;;;14.65;4.90;;;;;;;28.55;42.30;101321.50;5037361;28;20052;-68
2022/10/30 10:42:38;;;;;;;17.17;5.15;;;;;;;28.95;40.54;101323.84;5047187;28;20566;-68
2022/10/30 10:45:20;;;;;;;16.33;5.03;;;;;;;28.50;41.95;101307.72;5045384;28;20037;-68
2022/10/30 10:48:06;;;;;;;9.63;4.90;;;;;;;28.26;41.52;101305.22;5046683;28;20049;-68
2022/10/30 10:50:36;;;;;;;14.13;5.15;;;;;;;29.06;39.32;101311.75;5043792;28;20048;-68
2022/10/30 10:53:07;;;;;;;25.02;5.43;;;;;;;28.83;40.72;101317.22;5045640;28;20444;-69
2022/10/30 10:55:36;;;;;;;16.27;4.45;;;;;;;29.35;39.38;101310.94;5046744;28;20428;-69
2022/10/30 10:58:11;;;;;;;10.65;4.20;;;;;;;29.01;39.73;101320.41;5045862;28;20051;-69
2022/10/30 11:00:37;;;;;;;11.65;4.50;;;;;;;29.16;40.37;101316.88;5047248;28;20049;-69
2022/10/30 11:03:12;;;;;;;10.15;4.15;;;;;;;29.23;38.67;101323.22;5043186;28;20040;-69
2022/10/30 11:05:43;;;;;;;9.40;4.32;;;;;;;29.79;37.87;101321.66;5044773;28;20067;-69
2022/10/30 11:08:15;;;;;;;16.48;4.38;;;;;;;29.78;38.81;101318.16;5033233;28;20056;-68
2022/10/30 11:10:41;;;;;;;10.65;5.10;;;;;;;29.90;39.69;101315.81;5043558;28;20060;-69
2022/10/30 11:13:12;;;;;;;15.35;4.05;;;;;;;30.06;38.62;101317.44;5045873;28;20400;-69
2022/10/30 11:15:51;;;;;;;9.40;4.38;;;;;;;29.54;39.54;101318.47;5045478;28;20119;-69
2022/10/30 11:18:18;;;;;;;10.82;4.22;;;;;;;28.43;41.94;101313.00;5045503;28;20053;-69
2022/10/30 11:20:55;;;;;;;14.52;4.28;;;;;;;28.54;41.60;101309.03;5043441;28;20053;-68